createdAt,value
2019-03-30T00:00:52.073Z,19.20
2019-03-30T00:05:56.476Z,19.00
2019-03-30T00:11:00.912Z,19.07
2019-03-30T00:16:05.254Z,21.20
2019-03-30T00:21:09.601Z,22.20
2019-03-30T00:26:13.956Z,19.80
2019-03-30T00:31:18.329Z,20.97
2019-03-30T00:36:22.752Z,22.37
2019-03-30T00:41:27.673Z,19.90
2019-03-30T00:46:32.108Z,20.70
2019-03-30T00:51:36.491Z,20.40
2019-03-30T00:56:40.857Z,20.07
2019-03-30T01:01:45.204Z,19.30
2019-03-30T01:06:49.540Z,20.23
2019-03-30T01:11:53.892Z,20.73
2019-03-30T01:16:58.266Z,21.37
2019-03-30T01:22:02.625Z,20.20
2019-03-30T01:27:07.158Z,21.40
2019-03-30T01:32:12.503Z,21.07
2019-03-30T01:37:16.853Z,20.87
2019-03-30T01:42:21.214Z,22.17
2019-03-30T01:47:25.601Z,21.90
2019-03-30T01:52:29.939Z,21.27
2019-03-30T01:57:34.294Z,22.03
2019-03-30T02:02:38.722Z,21.80
2019-03-30T02:07:44.143Z,22.07
2019-03-30T02:12:48.501Z,22.67
2019-03-30T02:17:53.246Z,23.67
2019-03-30T02:22:57.596Z,21.60
2019-03-30T02:28:01.966Z,22.07
2019-03-30T02:33:06.521Z,22.70
2019-03-30T02:38:10.853Z,25.77
2019-03-30T02:43:15.323Z,24.40
2019-03-30T02:48:20.312Z,27.30
2019-03-30T02:53:24.720Z,22.40
2019-03-30T02:58:29.135Z,23.47
2019-03-30T03:03:33.446Z,22.13
2019-03-30T03:08:37.821Z,21.67
2019-03-30T03:13:42.139Z,23.12
2019-03-30T03:18:47.583Z,23.50
2019-03-30T03:23:51.928Z,23.50
2019-03-30T03:28:56.324Z,27.10
2019-03-30T03:34:00.732Z,25.10
2019-03-30T03:39:05.986Z,23.37
2019-03-30T03:44:10.421Z,25.30
2019-03-30T03:49:14.766Z,22.77
2019-03-30T03:54:19.293Z,23.80
2019-03-30T03:59:26.597Z,21.17
2019-03-30T04:04:31.328Z,23.27
2019-03-30T04:09:36.150Z,24.00
2019-03-30T04:14:43.747Z,22.73
2019-03-30T04:19:48.120Z,26.20
2019-03-30T04:24:52.513Z,24.50
2019-03-30T04:29:56.848Z,24.03
2019-03-30T04:35:01.294Z,22.83
2019-03-30T04:40:07.049Z,23.97
2019-03-30T04:45:11.435Z,24.33
2019-03-30T04:50:15.799Z,24.63
2019-03-30T04:55:20.199Z,23.77
2019-03-30T05:00:24.599Z,27.33
2019-03-30T05:05:28.963Z,24.80
2019-03-30T05:10:33.320Z,24.33
2019-03-30T05:15:37.662Z,25.50
2019-03-30T05:20:42.024Z,25.23
2019-03-30T05:25:46.380Z,23.73
2019-03-30T05:30:50.776Z,25.53
2019-03-30T05:35:55.207Z,22.90
2019-03-30T05:40:59.545Z,24.37
2019-03-30T05:46:03.955Z,25.13
2019-03-30T05:51:08.342Z,26.00
2019-03-30T05:56:12.710Z,25.97
2019-03-30T06:01:17.158Z,27.00
2019-03-30T06:06:22.603Z,27.20
2019-03-30T06:11:26.951Z,25.80
2019-03-30T06:16:31.301Z,26.70
2019-03-30T06:21:35.709Z,26.87
2019-03-30T06:26:40.071Z,29.97
2019-03-30T06:31:46.744Z,26.50
2019-03-30T06:36:50.502Z,25.35
2019-03-30T06:41:55.001Z,24.83
2019-03-30T06:46:59.389Z,25.93
2019-03-30T06:52:03.768Z,25.80
2019-03-30T06:57:08.191Z,23.23
2019-03-30T07:02:12.553Z,25.47
2019-03-30T07:07:17.416Z,24.97
2019-03-30T07:12:26.222Z,25.27
2019-03-30T07:17:30.593Z,24.27
2019-03-30T07:22:34.969Z,24.13
2019-03-30T07:27:39.355Z,26.17
2019-03-30T07:32:45.170Z,24.07
2019-03-30T07:37:49.461Z,25.80
2019-03-30T07:42:53.858Z,24.43
2019-03-30T07:47:58.249Z,21.90
2019-03-30T07:53:02.610Z,23.90
2019-03-30T07:58:07.038Z,21.90
2019-03-30T08:03:11.464Z,22.63
2019-03-30T08:08:17.464Z,23.27
2019-03-30T08:13:21.824Z,20.40
2019-03-30T08:18:26.210Z,19.57
2019-03-30T08:23:40.394Z,22.13
2019-03-30T08:28:36.656Z,21.37
2019-03-30T08:33:41.028Z,19.13
2019-03-30T08:38:45.392Z,19.13
2019-03-30T08:43:49.792Z,18.33
2019-03-30T08:48:54.182Z,19.90
2019-03-30T08:53:58.566Z,19.70
2019-03-30T08:59:02.978Z,20.40
2019-03-30T09:04:07.341Z,17.93
2019-03-30T09:09:11.720Z,19.47
2019-03-30T09:14:16.066Z,17.03
2019-03-30T09:19:20.427Z,17.60
2019-03-30T09:24:24.810Z,16.87
2019-03-30T09:29:29.165Z,16.40
2019-03-30T09:34:33.530Z,16.20
2019-03-30T09:39:37.990Z,15.70
2019-03-30T09:44:42.432Z,15.77
2019-03-30T09:49:47.034Z,14.63
2019-03-30T09:54:51.418Z,14.00
2019-03-30T09:59:56.838Z,13.03
2019-03-30T10:05:02.398Z,13.70
2019-03-30T10:10:07.510Z,14.87
2019-03-30T10:15:12.018Z,11.33
2019-03-30T10:20:18.997Z,11.27
2019-03-30T10:25:22.832Z,9.87
2019-03-30T10:30:27.338Z,8.70
2019-03-30T10:35:31.708Z,9.57
2019-03-30T10:40:36.048Z,9.50
2019-03-30T10:45:40.462Z,9.83
2019-03-30T10:50:44.819Z,11.50
2019-03-30T10:55:49.181Z,8.80
2019-03-30T11:00:53.551Z,11.10
2019-03-30T11:05:57.933Z,8.17
2019-03-30T11:11:02.269Z,8.00
2019-03-30T11:16:06.652Z,7.97
2019-03-30T11:21:11.025Z,8.00
2019-03-30T11:26:15.393Z,8.70
2019-03-30T11:31:19.728Z,7.00
2019-03-30T11:36:25.073Z,8.77
2019-03-30T11:41:29.443Z,7.23
2019-03-30T11:46:33.925Z,7.77
2019-03-30T11:51:38.336Z,7.30
2019-03-30T11:56:42.717Z,7.07
2019-03-30T12:01:47.127Z,7.00
2019-03-30T12:06:51.984Z,7.97
2019-03-30T12:11:56.491Z,6.77
2019-03-30T12:17:00.844Z,8.50
2019-03-30T12:22:05.224Z,7.10
2019-03-30T12:27:09.543Z,7.17
2019-03-30T12:32:13.918Z,7.60
2019-03-30T12:37:18.305Z,8.53
2019-03-30T12:42:22.674Z,7.70
2019-03-30T12:47:27.137Z,8.80
2019-03-30T12:52:31.511Z,8.77
2019-03-30T12:57:35.906Z,9.57
2019-03-30T13:02:40.285Z,8.53
2019-03-30T13:12:48.714Z,9.10
2019-03-30T13:17:53.086Z,9.67
2019-03-30T13:22:57.462Z,9.83
2019-03-30T13:28:01.835Z,10.37
2019-03-30T13:33:07.254Z,10.40
2019-03-30T13:38:12.603Z,10.23
2019-03-30T13:43:16.981Z,10.33
2019-03-30T13:48:21.335Z,9.73
2019-03-30T13:53:25.807Z,10.37
2019-03-30T13:58:30.136Z,10.53
2019-03-30T14:03:35.656Z,9.80
2019-03-30T14:08:40.270Z,9.13
2019-03-30T14:13:44.715Z,9.20
2019-03-30T14:18:49.195Z,9.27
2019-03-30T14:23:53.664Z,9.13
2019-03-30T14:28:58.191Z,9.58
2019-03-30T14:34:02.523Z,11.43
2019-03-30T14:39:07.477Z,10.30
2019-03-30T14:44:11.806Z,8.80
2019-03-30T14:49:16.271Z,9.33
2019-03-30T14:54:20.740Z,9.20
2019-03-30T14:59:25.108Z,10.60
2019-03-30T15:04:29.472Z,9.20
2019-03-30T15:09:33.832Z,9.27
2019-03-30T15:14:38.237Z,11.17
2019-03-30T15:19:42.619Z,9.23
2019-03-30T15:24:47.034Z,8.83
2019-03-30T15:29:52.579Z,8.27
2019-03-30T15:34:58.490Z,9.13
2019-03-30T15:40:02.991Z,9.90
2019-03-30T15:45:09.627Z,10.63
2019-03-30T15:50:14.373Z,9.93
2019-03-30T15:55:18.734Z,9.70
2019-03-30T16:00:23.081Z,9.90
2019-03-30T16:05:27.426Z,10.30
2019-03-30T16:10:31.861Z,9.33
2019-03-30T16:15:36.316Z,9.50
2019-03-30T16:20:40.785Z,10.40
2019-03-30T16:25:45.130Z,9.63
2019-03-30T16:30:49.489Z,12.10
2019-03-30T16:35:53.855Z,9.60
2019-03-30T16:40:58.216Z,8.97
2019-03-30T16:46:02.640Z,9.73
2019-03-30T16:51:07.179Z,9.70
2019-03-30T16:56:11.630Z,9.57
2019-03-30T17:01:16.008Z,9.23
2019-03-30T17:06:20.377Z,10.63
2019-03-30T17:11:24.914Z,9.33
2019-03-30T17:16:29.480Z,11.07
2019-03-30T17:21:33.890Z,9.43
2019-03-30T17:26:38.309Z,11.33
2019-03-30T17:31:42.843Z,11.03
2019-03-30T17:36:47.307Z,11.37
2019-03-30T17:41:51.725Z,13.57
2019-03-30T17:46:56.104Z,11.07
2019-03-30T17:52:00.562Z,10.50
2019-03-30T17:57:04.926Z,11.77
2019-03-30T18:02:09.289Z,11.93
2019-03-30T18:07:15.914Z,13.00
2019-03-30T18:12:20.608Z,13.50
2019-03-30T18:17:27.880Z,14.07
2019-03-30T18:22:33.798Z,16.37
2019-03-30T18:27:39.237Z,13.80
2019-03-30T18:32:44.689Z,53.57
2019-03-30T18:37:52.822Z,20.93
2019-03-30T18:43:01.975Z,15.20
2019-03-30T18:48:18.376Z,15.43
2019-03-30T18:53:26.131Z,14.63
2019-03-30T18:58:41.459Z,16.23
2019-03-30T19:03:39.769Z,21.27
2019-03-30T19:08:47.050Z,21.00
2019-03-30T19:13:57.845Z,16.73
2019-03-30T19:19:02.339Z,17.67
2019-03-30T19:24:06.941Z,16.80
2019-03-30T19:29:11.474Z,21.83
2019-03-30T19:34:15.927Z,16.57
2019-03-30T19:39:20.308Z,21.40
2019-03-30T19:44:24.651Z,19.07
2019-03-30T19:49:29.056Z,18.30
2019-03-30T19:54:33.447Z,23.97
2019-03-30T19:59:37.847Z,14.77
2019-03-30T20:04:42.217Z,15.87
2019-03-30T20:09:46.605Z,16.90
2019-03-30T20:14:51.007Z,15.13
2019-03-30T20:19:55.388Z,18.70
2019-03-30T20:24:59.750Z,17.37
2019-03-30T20:30:06.784Z,18.20
2019-03-30T20:35:11.354Z,22.30
2019-03-30T20:40:15.761Z,22.53
2019-03-30T20:45:20.143Z,21.17
2019-03-30T20:50:24.511Z,21.57
2019-03-30T20:55:28.892Z,25.73
2019-03-30T21:00:33.398Z,24.73
2019-03-30T21:05:37.770Z,25.73
2019-03-30T21:10:42.158Z,25.33
2019-03-30T21:15:46.531Z,25.73
2019-03-30T21:20:50.970Z,25.07
2019-03-30T21:25:55.354Z,29.43
2019-03-30T21:30:59.742Z,24.37
2019-03-30T21:36:04.131Z,26.17
2019-03-30T21:41:09.591Z,28.70
2019-03-30T21:46:13.971Z,25.40
2019-03-30T21:51:18.618Z,24.37
2019-03-30T21:56:23.030Z,28.20
2019-03-30T22:01:27.405Z,22.60
2019-03-30T22:06:31.815Z,23.83
2019-03-30T22:11:36.657Z,26.90
2019-03-30T22:16:41.094Z,26.00
2019-03-30T22:21:45.437Z,22.80
2019-03-30T22:26:49.828Z,21.63
2019-03-30T22:31:54.242Z,21.87
2019-03-30T22:36:58.629Z,22.97
2019-03-30T22:42:03.108Z,20.53
2019-03-30T22:47:07.454Z,21.30
2019-03-30T22:52:11.905Z,23.40
2019-03-30T22:57:16.284Z,21.17
2019-03-30T23:02:20.681Z,21.67
2019-03-30T23:07:25.065Z,19.50
2019-03-30T23:12:29.431Z,20.97
2019-03-30T23:17:33.788Z,20.17
2019-03-30T23:22:38.180Z,20.93
2019-03-30T23:27:42.561Z,21.10
2019-03-30T23:32:48.106Z,21.63
2019-03-30T23:37:52.448Z,19.30
2019-03-30T23:42:56.844Z,21.97
2019-03-30T23:48:01.468Z,21.63
2019-03-30T23:53:07.554Z,20.57
2019-03-30T23:58:13.256Z,20.67
